Decoded Metar for KLUK (CINCINNATI in OH, USA) (IATA:LUK) | Meteo·Mobile Aviation Weather
aviador You're here:

KLUK Decoded Metar

CINCINNATI in OH, USA
Report Time2019-03-21 21:45:00
UTC Time2019-03-21 21:54:05
Flight Rules vfr VFR
Wind240° at 06 kt
W.Decomp.*RWY 25: 6.0 kt HW 0.6 kt LCW
RWY 21: 5.0 kt HW 3.4 kt RCW
W.Rank240° ranks 11
Current wind is below 240° avg. (8.2)
Visibility9999 m
Phenomena:Light Rain
Clouds:Few 019 Hf
Scattered 030 Hf
Overcast 043 Hf
Expected CloudBase > 1,600 ft AGL from Temp-Dew spread
Ceiling4,300 ft
Temp08°C (ISA -6)
Dew Point04°C (76% RH)
AAT4.5°C
QNH1013 hPa
Density Alt-95 ft
Elevation509 ft
Report Wrong Elevation
Raw Report
KLUK 212145Z 24006KT 10SM -RA FEW019 SCT030 OVC043 08/04 A2992 RMK
AO2 P0006 T00780039=

Extra information for KLUK:More info

Metar Taf Metar & Taf Last 4 Metars F.Rules Stats Wind Profile Meteogram Temp Stats Airport Information Weather charts Add Link Nearby VenuesMetar ALERT Operation Metar Decoded Social comments

AIRNAV info for KLUK